createdAt,value
2022-09-30T00:01:33.877Z,3.73
2022-09-30T00:04:03.028Z,3.03
2022-09-30T00:06:32.568Z,2.77
2022-09-30T00:09:01.845Z,3.43
2022-09-30T00:11:32.584Z,3.03
2022-09-30T00:14:01.655Z,2.40
2022-09-30T00:16:32.863Z,2.70
2022-09-30T00:19:01.617Z,3.07
2022-09-30T00:21:29.826Z,2.70
2022-09-30T00:23:59.179Z,3.23
2022-09-30T00:26:27.281Z,2.80
2022-09-30T00:28:57.216Z,2.90
2022-09-30T00:31:26.928Z,2.37
2022-09-30T00:34:08.155Z,2.83
2022-09-30T00:36:38.273Z,2.97
2022-09-30T00:39:09.349Z,2.50
2022-09-30T00:41:37.660Z,2.73
2022-09-30T00:44:39.151Z,2.57
2022-09-30T00:47:12.984Z,2.80
2022-09-30T00:49:40.998Z,2.93
2022-09-30T00:52:08.938Z,2.20
2022-09-30T00:54:38.296Z,2.93
2022-09-30T00:57:08.592Z,2.40
2022-09-30T00:59:41.749Z,2.17
2022-09-30T01:02:11.570Z,2.77
2022-09-30T01:04:39.817Z,2.40
2022-09-30T01:07:09.474Z,3.00
2022-09-30T01:09:41.878Z,2.70
2022-09-30T01:12:13.164Z,2.57
2022-09-30T01:14:42.205Z,2.30
2022-09-30T01:17:17.908Z,2.70
2022-09-30T01:20:28.155Z,2.60
2022-09-30T01:23:07.366Z,2.70
2022-09-30T01:26:07.505Z,2.57
2022-09-30T01:29:11.792Z,2.20
2022-09-30T01:31:51.038Z,2.23
2022-09-30T01:34:30.072Z,2.30
2022-09-30T01:37:09.287Z,2.23
2022-09-30T01:39:49.984Z,2.47
2022-09-30T01:42:27.436Z,2.47
2022-09-30T01:45:03.495Z,2.63
2022-09-30T01:47:37.554Z,2.47
2022-09-30T01:50:10.561Z,1.97
2022-09-30T01:52:42.494Z,3.00
2022-09-30T01:55:18.220Z,2.13
2022-09-30T01:57:51.240Z,2.30
2022-09-30T02:00:21.053Z,2.10
2022-09-30T02:02:54.808Z,2.03
2022-09-30T02:05:28.257Z,2.30
2022-09-30T02:08:01.409Z,2.13
2022-09-30T02:10:34.620Z,2.03
2022-09-30T02:13:09.825Z,2.50
2022-09-30T02:15:42.634Z,2.40
2022-09-30T02:18:19.865Z,2.20
2022-09-30T02:20:52.258Z,2.17
2022-09-30T02:23:25.922Z,2.37
2022-09-30T02:26:00.898Z,2.70
2022-09-30T02:28:30.456Z,2.33
2022-09-30T02:31:02.028Z,2.70
2022-09-30T02:33:35.719Z,2.80
2022-09-30T02:36:07.198Z,2.17
2022-09-30T02:38:40.783Z,2.33
2022-09-30T02:41:12.796Z,2.50
2022-09-30T02:43:42.522Z,2.17
2022-09-30T02:46:20.256Z,2.37
2022-09-30T02:48:59.700Z,1.37
2022-09-30T02:51:40.402Z,2.03
2022-09-30T02:54:16.233Z,2.50
2022-09-30T02:56:55.536Z,2.50
2022-09-30T02:59:24.549Z,2.80
2022-09-30T03:01:52.936Z,2.70
2022-09-30T03:04:26.147Z,2.57
2022-09-30T03:06:54.046Z,2.13
2022-09-30T03:09:26.170Z,2.23
2022-09-30T03:11:58.591Z,2.33
2022-09-30T03:14:40.420Z,1.80
2022-09-30T03:17:32.353Z,2.40
2022-09-30T03:20:22.376Z,2.47
2022-09-30T03:23:24.227Z,2.60
2022-09-30T03:26:00.059Z,3.03
2022-09-30T03:28:32.092Z,1.77
2022-09-30T03:31:06.904Z,2.20
2022-09-30T03:33:46.598Z,2.47
2022-09-30T03:36:25.612Z,2.17
2022-09-30T03:39:02.285Z,2.80
2022-09-30T03:41:36.125Z,2.47
2022-09-30T03:44:10.929Z,2.40
2022-09-30T03:46:43.845Z,2.10
2022-09-30T03:49:16.768Z,2.77
2022-09-30T03:51:46.023Z,2.37
2022-09-30T03:54:15.270Z,2.70
2022-09-30T03:56:43.889Z,2.77
2022-09-30T03:59:14.209Z,2.27
2022-09-30T04:01:42.237Z,2.23
2022-09-30T04:04:10.296Z,2.30
2022-09-30T04:06:38.181Z,2.17
2022-09-30T04:09:07.569Z,3.00
2022-09-30T04:11:35.608Z,3.50
2022-09-30T04:14:03.765Z,3.03
2022-09-30T04:16:32.004Z,2.53
2022-09-30T04:19:00.250Z,2.53
2022-09-30T04:21:29.157Z,2.50
2022-09-30T04:23:57.159Z,3.87
2022-09-30T04:26:26.513Z,2.90
2022-09-30T04:28:55.003Z,2.20
2022-09-30T04:31:23.092Z,2.70
2022-09-30T04:33:51.766Z,3.20
2022-09-30T04:36:19.720Z,3.50
2022-09-30T04:38:47.608Z,4.73
2022-09-30T04:41:18.035Z,5.50
2022-09-30T04:43:48.840Z,5.50
2022-09-30T04:46:17.676Z,6.20
2022-09-30T04:48:46.530Z,5.77
2022-09-30T04:51:14.951Z,5.60
2022-09-30T04:53:43.581Z,4.77
2022-09-30T04:56:11.743Z,5.40
2022-09-30T04:58:39.794Z,4.33
2022-09-30T05:01:10.839Z,4.93
2022-09-30T05:03:39.270Z,3.60
2022-09-30T05:06:08.251Z,3.30
2022-09-30T05:08:36.504Z,4.23
2022-09-30T05:11:08.382Z,5.87
2022-09-30T05:13:37.830Z,4.87
2022-09-30T05:16:07.026Z,4.40
2022-09-30T05:18:36.688Z,4.50
2022-09-30T05:21:05.812Z,4.57
2022-09-30T05:23:34.135Z,3.87
2022-09-30T05:26:03.653Z,4.80
2022-09-30T05:28:32.427Z,3.90
2022-09-30T05:31:04.186Z,4.37
2022-09-30T05:33:32.164Z,4.67
2022-09-30T05:36:03.567Z,3.77
2022-09-30T05:38:31.645Z,4.30
2022-09-30T05:40:59.713Z,4.60
2022-09-30T05:43:28.032Z,4.30
2022-09-30T05:45:56.471Z,4.80
2022-09-30T05:48:25.781Z,3.87
2022-09-30T05:50:56.019Z,4.03
2022-09-30T05:53:25.972Z,4.67
2022-09-30T05:55:53.935Z,5.50
2022-09-30T05:58:22.409Z,6.93
2022-09-30T06:00:51.118Z,6.40
2022-09-30T06:03:19.995Z,6.60
2022-09-30T06:05:48.121Z,6.43
2022-09-30T06:08:16.981Z,5.97
2022-09-30T06:10:46.646Z,4.47
2022-09-30T06:13:14.925Z,5.30
2022-09-30T06:15:42.822Z,4.33
2022-09-30T06:18:15.803Z,4.67
2022-09-30T06:20:45.647Z,4.40
2022-09-30T06:23:13.580Z,6.33
2022-09-30T06:25:43.866Z,5.97
2022-09-30T06:28:13.441Z,6.33
2022-09-30T06:30:41.458Z,5.63
2022-09-30T06:33:09.232Z,5.20
2022-09-30T06:35:38.033Z,5.23
2022-09-30T06:38:05.972Z,6.63
2022-09-30T06:40:33.870Z,7.23
2022-09-30T06:43:02.428Z,6.70
2022-09-30T06:45:33.464Z,5.33
2022-09-30T06:48:02.723Z,6.00
2022-09-30T06:50:31.590Z,5.77
2022-09-30T06:53:00.469Z,5.60
2022-09-30T06:55:29.326Z,5.50
2022-09-30T06:57:57.985Z,5.33
2022-09-30T07:00:28.810Z,5.87
2022-09-30T07:02:58.379Z,4.37
2022-09-30T07:05:26.600Z,6.07
2022-09-30T07:07:56.235Z,4.80
2022-09-30T07:10:24.364Z,5.43
2022-09-30T07:12:52.964Z,5.53
2022-09-30T07:15:23.011Z,5.33
2022-09-30T07:17:54.888Z,5.30
2022-09-30T07:20:24.767Z,5.90
2022-09-30T07:22:52.764Z,6.00
2022-09-30T07:25:20.932Z,5.43
2022-09-30T07:27:48.822Z,6.27
2022-09-30T07:30:25.919Z,5.40
2022-09-30T07:32:55.141Z,5.70
2022-09-30T07:35:24.537Z,5.93
2022-09-30T07:37:52.455Z,6.00
2022-09-30T07:40:20.583Z,6.07
2022-09-30T07:42:48.578Z,6.30
2022-09-30T07:45:17.178Z,5.87
2022-09-30T07:47:47.506Z,6.53
2022-09-30T07:50:38.988Z,6.90
2022-09-30T07:53:08.233Z,6.87
2022-09-30T07:55:36.270Z,7.00
2022-09-30T07:58:06.117Z,7.03
2022-09-30T08:00:47.416Z,6.60
2022-09-30T08:03:15.418Z,7.00
2022-09-30T08:05:45.376Z,6.23
2022-09-30T08:08:15.782Z,7.10
2022-09-30T08:10:44.275Z,7.03
2022-09-30T08:13:13.904Z,7.33
2022-09-30T08:15:42.178Z,7.00
2022-09-30T08:18:10.226Z,6.83
2022-09-30T08:20:38.359Z,7.40
2022-09-30T08:23:06.368Z,6.50
2022-09-30T08:25:36.468Z,6.57
2022-09-30T08:28:04.575Z,6.57
2022-09-30T08:30:32.652Z,6.67
2022-09-30T08:33:00.679Z,6.00
2022-09-30T08:35:28.734Z,6.90
2022-09-30T08:37:57.041Z,6.50
2022-09-30T08:40:27.808Z,6.47
2022-09-30T08:43:25.649Z,6.43
2022-09-30T08:46:04.133Z,6.40
2022-09-30T08:48:46.008Z,6.80
2022-09-30T08:51:29.294Z,6.47
2022-09-30T08:54:07.796Z,5.63
2022-09-30T08:56:36.606Z,6.53
2022-09-30T08:59:12.884Z,6.67
2022-09-30T09:01:45.779Z,6.17
2022-09-30T09:04:14.954Z,5.23
2022-09-30T09:06:52.837Z,5.10
2022-09-30T09:09:36.690Z,4.93
2022-09-30T09:12:15.426Z,5.73
2022-09-30T09:15:01.138Z,4.70
2022-09-30T09:17:40.302Z,5.20
2022-09-30T09:20:15.658Z,4.57
2022-09-30T09:22:45.921Z,4.00
2022-09-30T09:25:17.138Z,3.97
2022-09-30T09:27:54.563Z,4.43
2022-09-30T09:30:26.812Z,4.20
2022-09-30T09:32:57.249Z,4.20
2022-09-30T09:35:37.449Z,3.67
2022-09-30T09:38:26.886Z,3.65
2022-09-30T09:41:06.297Z,3.70
2022-09-30T09:43:58.457Z,3.37
2022-09-30T09:46:30.412Z,2.80
2022-09-30T09:49:28.730Z,3.07
2022-09-30T09:52:17.922Z,3.10
2022-09-30T09:54:48.326Z,3.53
2022-09-30T09:57:17.829Z,2.60
2022-09-30T10:02:30.946Z,3.30
2022-09-30T10:05:04.013Z,2.37
2022-09-30T10:07:33.826Z,3.00
2022-09-30T10:10:22.554Z,3.42
2022-09-30T10:12:51.248Z,3.00
2022-09-30T10:15:23.536Z,2.83
2022-09-30T10:17:55.772Z,3.10
2022-09-30T10:20:31.215Z,3.07
2022-09-30T10:23:09.690Z,1.93
2022-09-30T10:25:38.200Z,1.57
2022-09-30T10:28:23.662Z,2.10
2022-09-30T10:30:56.673Z,2.20
2022-09-30T10:33:33.940Z,2.43
2022-09-30T10:36:11.324Z,1.80
2022-09-30T10:38:47.556Z,1.67
2022-09-30T10:41:23.297Z,2.20
2022-09-30T10:43:54.253Z,2.20
2022-09-30T10:46:29.059Z,2.40
2022-09-30T10:49:00.444Z,2.50
2022-09-30T10:51:36.288Z,2.13
2022-09-30T10:54:05.399Z,2.27
2022-09-30T10:56:39.845Z,1.90
2022-09-30T10:59:26.902Z,2.00
2022-09-30T11:02:00.832Z,1.80
2022-09-30T11:04:38.119Z,1.83
2022-09-30T11:07:16.875Z,2.20
2022-09-30T11:09:51.854Z,1.83
2022-09-30T11:12:26.820Z,1.70
2022-09-30T11:15:03.680Z,1.93
2022-09-30T11:17:40.377Z,1.97
2022-09-30T11:20:18.128Z,1.50
2022-09-30T11:22:52.939Z,1.60
2022-09-30T11:25:27.290Z,2.17
2022-09-30T11:28:14.969Z,2.40
2022-09-30T11:30:49.990Z,2.27
2022-09-30T11:33:40.953Z,2.23
2022-09-30T11:36:22.607Z,1.73
2022-09-30T11:39:04.796Z,1.70
2022-09-30T11:41:37.275Z,1.92
2022-09-30T11:44:19.320Z,1.45
2022-09-30T11:47:01.780Z,1.50
2022-09-30T11:50:01.132Z,1.70
2022-09-30T11:52:39.813Z,1.80
2022-09-30T11:55:32.602Z,1.70
2022-09-30T11:58:22.241Z,1.67
2022-09-30T12:00:57.039Z,1.23
2022-09-30T12:03:29.783Z,1.47
2022-09-30T12:06:03.505Z,1.20
2022-09-30T12:08:37.401Z,1.40
2022-09-30T12:11:09.570Z,1.17
2022-09-30T12:13:40.626Z,1.17
2022-09-30T12:16:14.502Z,1.40
2022-09-30T12:18:47.554Z,1.80
2022-09-30T12:21:23.386Z,1.53
2022-09-30T12:24:00.028Z,1.93
2022-09-30T12:26:28.422Z,1.50
2022-09-30T12:29:19.332Z,1.00
2022-09-30T12:32:09.212Z,0.90
2022-09-30T12:34:52.634Z,0.93
2022-09-30T12:37:34.779Z,1.23
2022-09-30T12:40:22.598Z,1.20
2022-09-30T12:43:09.280Z,1.57
2022-09-30T12:46:14.716Z,1.40
2022-09-30T12:48:46.851Z,1.40
2022-09-30T12:51:25.600Z,1.30
2022-09-30T12:53:59.063Z,1.80
2022-09-30T12:56:30.876Z,1.10
2022-09-30T12:59:00.641Z,1.42
2022-09-30T13:01:30.748Z,1.20
2022-09-30T13:04:31.149Z,0.93
2022-09-30T13:07:14.700Z,0.82
2022-09-30T13:10:18.980Z,0.95
2022-09-30T13:12:52.637Z,0.80
2022-09-30T13:15:38.595Z,0.85
2022-09-30T13:18:40.988Z,0.80
2022-09-30T13:21:22.622Z,1.10
2022-09-30T13:23:51.745Z,0.80
2022-09-30T13:26:48.591Z,1.10
2022-09-30T13:29:49.798Z,0.93
2022-09-30T13:32:37.428Z,0.93
2022-09-30T13:35:32.669Z,0.70
2022-09-30T13:38:18.610Z,0.90
2022-09-30T13:41:06.740Z,0.88
2022-09-30T13:43:40.784Z,0.65
2022-09-30T13:46:18.781Z,0.80
2022-09-30T13:48:53.410Z,0.70
2022-09-30T13:51:25.006Z,0.70
2022-09-30T13:53:56.598Z,0.90
2022-09-30T13:56:27.730Z,0.60
2022-09-30T13:59:15.167Z,1.00
2022-09-30T14:02:02.520Z,0.77
2022-09-30T14:04:56.452Z,0.80
2022-09-30T14:07:37.229Z,0.60
2022-09-30T14:10:21.295Z,0.97
2022-09-30T14:13:07.254Z,0.90
2022-09-30T14:15:57.348Z,0.80
2022-09-30T14:18:54.219Z,0.60
2022-09-30T14:21:36.011Z,0.80
2022-09-30T14:24:10.973Z,0.93
2022-09-30T14:26:52.993Z,0.98
2022-09-30T14:29:30.484Z,0.70
2022-09-30T14:32:00.052Z,0.80
2022-09-30T14:34:33.954Z,1.20
2022-09-30T14:37:24.819Z,0.88
2022-09-30T14:39:52.873Z,1.10
2022-09-30T14:42:29.675Z,0.93
2022-09-30T14:45:04.382Z,1.10
2022-09-30T14:47:35.042Z,0.70
2022-09-30T14:50:10.531Z,1.50
2022-09-30T14:52:44.055Z,1.20
2022-09-30T14:55:23.515Z,1.40
2022-09-30T14:57:51.550Z,1.17
2022-09-30T15:00:28.913Z,1.20
2022-09-30T15:02:57.276Z,1.13
2022-09-30T15:05:27.394Z,0.90
2022-09-30T15:07:55.663Z,1.02
2022-09-30T15:10:25.472Z,1.27
2022-09-30T15:12:56.098Z,1.30
2022-09-30T15:15:26.650Z,1.00
2022-09-30T15:17:55.616Z,1.00
2022-09-30T15:20:31.056Z,0.83
2022-09-30T15:23:03.226Z,1.07
2022-09-30T15:25:32.270Z,1.10
2022-09-30T15:28:00.358Z,1.17
2022-09-30T15:30:30.219Z,0.83
2022-09-30T15:33:03.522Z,2.10
2022-09-30T15:35:34.253Z,1.57
2022-09-30T15:38:11.562Z,1.27
2022-09-30T15:40:50.452Z,1.40
2022-09-30T15:43:32.981Z,1.20
2022-09-30T15:46:18.597Z,1.27
2022-09-30T15:48:47.025Z,1.50
2022-09-30T15:51:31.641Z,1.47
2022-09-30T15:54:01.411Z,1.73
2022-09-30T15:56:37.804Z,2.27
2022-09-30T15:59:08.706Z,2.50
2022-09-30T16:01:41.381Z,2.67
2022-09-30T16:04:14.403Z,1.90
2022-09-30T16:06:50.844Z,2.47
2022-09-30T16:09:30.801Z,2.70
2022-09-30T16:12:02.834Z,3.30
2022-09-30T16:14:33.942Z,3.80
2022-09-30T16:17:04.671Z,2.83
2022-09-30T16:19:32.880Z,3.33
2022-09-30T16:22:02.140Z,3.10
2022-09-30T16:24:49.236Z,3.47
2022-09-30T16:27:30.464Z,2.27
2022-09-30T16:30:00.034Z,2.60
2022-09-30T16:32:38.917Z,2.10
2022-09-30T16:35:08.402Z,2.10
2022-09-30T16:37:37.773Z,1.97
2022-09-30T16:40:18.002Z,2.27
2022-09-30T16:42:45.974Z,1.90
2022-09-30T16:45:15.023Z,2.70
2022-09-30T16:47:43.168Z,4.07
2022-09-30T16:50:31.018Z,3.40
2022-09-30T16:53:00.330Z,2.83
2022-09-30T16:55:28.889Z,3.70
2022-09-30T16:57:58.004Z,3.70
2022-09-30T17:00:26.628Z,2.67
2022-09-30T17:02:54.833Z,3.43
2022-09-30T17:05:24.545Z,3.60
2022-09-30T17:07:54.437Z,3.03
2022-09-30T17:10:28.935Z,2.90
2022-09-30T17:12:57.729Z,2.70
2022-09-30T17:15:25.843Z,3.10
2022-09-30T17:17:53.886Z,3.37
2022-09-30T17:20:22.845Z,3.80
2022-09-30T17:22:51.032Z,4.30
2022-09-30T17:25:20.083Z,5.83
2022-09-30T17:27:50.595Z,7.53
2022-09-30T17:30:18.992Z,6.10
2022-09-30T17:32:47.168Z,7.40
2022-09-30T17:35:15.707Z,7.53
2022-09-30T17:37:46.364Z,7.47
2022-09-30T17:40:32.374Z,7.40
2022-09-30T17:43:14.001Z,7.30
2022-09-30T17:45:44.219Z,7.17
2022-09-30T17:48:13.622Z,7.63
2022-09-30T17:50:44.304Z,6.73
2022-09-30T17:53:14.290Z,6.87
2022-09-30T17:55:43.661Z,6.73
2022-09-30T17:58:12.959Z,5.37
2022-09-30T18:00:41.600Z,5.03
2022-09-30T18:03:10.753Z,4.87
2022-09-30T18:05:38.858Z,5.67
2022-09-30T18:08:07.103Z,5.63
2022-09-30T18:10:37.696Z,5.77
2022-09-30T18:13:05.809Z,6.10
2022-09-30T18:15:35.215Z,7.83
2022-09-30T18:18:03.178Z,6.37
2022-09-30T18:20:31.208Z,6.00
2022-09-30T18:23:00.497Z,7.23
2022-09-30T18:25:36.842Z,6.83
2022-09-30T18:28:13.665Z,7.47
2022-09-30T18:30:45.017Z,8.30
2022-09-30T18:33:14.227Z,10.60
2022-09-30T18:35:43.106Z,9.33
2022-09-30T18:38:12.874Z,12.37
2022-09-30T18:40:43.435Z,12.37
2022-09-30T18:43:14.208Z,12.47
2022-09-30T18:45:53.948Z,11.90
2022-09-30T18:48:21.921Z,12.27
2022-09-30T18:50:51.430Z,12.70
2022-09-30T18:53:20.784Z,11.13
2022-09-30T18:55:49.043Z,11.27
2022-09-30T18:58:17.371Z,9.90
2022-09-30T19:00:46.739Z,10.93
2022-09-30T19:03:16.356Z,12.50
2022-09-30T19:05:44.267Z,13.00
2022-09-30T19:08:13.184Z,16.30
2022-09-30T19:10:42.183Z,16.80
2022-09-30T19:13:12.923Z,17.00
2022-09-30T19:15:40.888Z,17.90
2022-09-30T19:18:10.531Z,18.13
2022-09-30T19:20:38.768Z,17.27
2022-09-30T19:23:08.379Z,16.00
2022-09-30T19:25:36.400Z,16.73
2022-09-30T19:28:04.416Z,16.13
2022-09-30T19:30:32.374Z,14.63
2022-09-30T19:33:00.402Z,14.20
2022-09-30T19:35:39.809Z,13.40
2022-09-30T19:38:09.354Z,12.53
2022-09-30T19:40:37.612Z,14.63
2022-09-30T19:43:06.941Z,14.63
2022-09-30T19:45:35.133Z,15.57
2022-09-30T19:48:03.137Z,16.30
2022-09-30T19:50:36.976Z,16.57
2022-09-30T19:53:04.831Z,13.60
2022-09-30T19:55:43.523Z,13.93
2022-09-30T19:58:14.165Z,13.00
2022-09-30T20:00:42.192Z,11.00
2022-09-30T20:03:11.569Z,12.30
2022-09-30T20:05:43.939Z,10.63
2022-09-30T20:08:11.958Z,10.80
2022-09-30T20:10:39.917Z,9.67
2022-09-30T20:13:07.986Z,10.20
2022-09-30T20:15:53.246Z,10.47
2022-09-30T20:18:21.741Z,10.40
2022-09-30T20:20:51.322Z,11.00
2022-09-30T20:23:19.779Z,9.50
2022-09-30T20:25:47.670Z,10.37
2022-09-30T20:28:18.577Z,10.70
2022-09-30T20:30:47.220Z,10.83
2022-09-30T20:33:17.696Z,10.00
2022-09-30T20:35:46.336Z,10.60
2022-09-30T20:38:19.337Z,11.20
2022-09-30T20:40:47.372Z,11.73
2022-09-30T20:43:15.324Z,12.33
2022-09-30T20:45:43.327Z,11.00
2022-09-30T20:48:11.425Z,11.13
2022-09-30T20:50:43.520Z,11.40
2022-09-30T20:53:13.762Z,11.27
2022-09-30T20:55:56.107Z,10.80
2022-09-30T20:58:24.007Z,11.13
2022-09-30T21:00:52.521Z,11.90
2022-09-30T21:03:20.398Z,11.67
2022-09-30T21:05:53.341Z,11.30
2022-09-30T21:08:21.264Z,10.63
2022-09-30T21:10:51.069Z,11.20
2022-09-30T21:13:19.234Z,11.17
2022-09-30T21:15:47.199Z,11.37
2022-09-30T21:18:15.202Z,11.30
2022-09-30T21:20:43.260Z,9.53
2022-09-30T21:23:11.385Z,9.60
2022-09-30T21:25:39.309Z,9.43
2022-09-30T21:28:08.747Z,10.10
2022-09-30T21:30:42.296Z,9.00
2022-09-30T21:33:10.226Z,9.80
2022-09-30T21:35:38.298Z,8.97
2022-09-30T21:38:06.383Z,9.50
2022-09-30T21:40:34.271Z,9.17
2022-09-30T21:43:02.283Z,8.37
2022-09-30T21:45:31.640Z,10.13
2022-09-30T21:48:02.940Z,8.03
2022-09-30T21:50:32.962Z,7.90
2022-09-30T21:53:01.133Z,8.57
2022-09-30T21:55:29.280Z,7.63
2022-09-30T21:57:57.264Z,8.93
2022-09-30T22:00:25.293Z,7.80
2022-09-30T22:02:54.636Z,8.47
2022-09-30T22:05:22.677Z,7.73
2022-09-30T22:07:50.762Z,8.07
2022-09-30T22:10:18.725Z,8.10
2022-09-30T22:12:46.816Z,6.70
2022-09-30T22:15:14.927Z,8.47
2022-09-30T22:17:42.925Z,7.70
2022-09-30T22:20:13.111Z,8.40
2022-09-30T22:22:42.055Z,8.10
2022-09-30T22:25:10.469Z,8.23
2022-09-30T22:27:38.536Z,7.90
2022-09-30T22:30:07.692Z,7.70
2022-09-30T22:32:35.846Z,8.27
2022-09-30T22:35:22.001Z,7.70
2022-09-30T22:38:09.732Z,8.63
2022-09-30T22:40:37.918Z,8.10
2022-09-30T22:43:05.934Z,9.07
2022-09-30T22:45:36.250Z,9.10
2022-09-30T22:48:04.549Z,7.63
2022-09-30T22:50:35.954Z,8.37
2022-09-30T22:53:05.254Z,8.77
2022-09-30T22:55:33.349Z,8.47
2022-09-30T22:58:01.339Z,7.87
2022-09-30T23:00:29.970Z,8.60
2022-09-30T23:02:58.078Z,8.27
2022-09-30T23:05:26.669Z,8.73
2022-09-30T23:07:54.659Z,8.83
2022-09-30T23:10:24.437Z,8.90
2022-09-30T23:12:54.014Z,9.30
2022-09-30T23:15:22.512Z,9.43
2022-09-30T23:17:50.562Z,8.97
2022-09-30T23:20:18.433Z,7.90
2022-09-30T23:22:47.101Z,8.27
2022-09-30T23:25:15.236Z,9.27
2022-09-30T23:27:48.628Z,8.70
2022-09-30T23:30:16.965Z,8.40
2022-09-30T23:32:44.963Z,8.40
2022-09-30T23:35:14.265Z,8.13
2022-09-30T23:37:42.299Z,8.70
2022-09-30T23:40:11.222Z,8.67
2022-09-30T23:42:40.183Z,8.50
2022-09-30T23:45:10.786Z,9.10
2022-09-30T23:47:38.710Z,8.60
2022-09-30T23:50:07.937Z,9.70
2022-09-30T23:52:36.145Z,9.77
2022-09-30T23:55:04.187Z,8.30
2022-09-30T23:57:32.702Z,9.53
